Time;durP1;ratioP1;P1;durP2;ratioP2;P2;SDS_P1;SDS_P2;PMS_P1;PMS_P2;Temp;Humidity;BMP_temperature;BMP_pressure;BME280_temperature;BME280_humidity;BME280_pressure;Samples;Min_cycle;Max_cycle;Signal;HPM_P1;HPM_P2
2022/02/17 00:02:05;;;;;;;0.40;0.05;;;;;;;12.95;74.48;97803.44;5001921;28;20026;-73
2022/02/17 00:04:30;;;;;;;2.63;0.08;;;;;;;12.97;74.23;97780.41;5003087;28;20518;-73
2022/02/17 00:06:56;;;;;;;0.10;0.00;;;;;;;12.96;74.44;97778.69;5003141;28;20089;-73
2022/02/17 00:09:21;;;;;;;0.03;0.00;;;;;;;12.99;74.47;97765.25;5002786;28;20042;-73
2022/02/17 00:11:47;;;;;;;0.05;0.03;;;;;;;12.87;74.63;97752.78;4987181;28;20036;-73
2022/02/17 00:14:12;;;;;;;0.20;0.00;;;;;;;12.85;74.49;97747.56;4997767;28;20030;-73
2022/02/17 00:16:37;;;;;;;0.00;0.00;;;;;;;12.85;74.74;97736.13;5003897;28;20457;-73
2022/02/17 00:19:03;;;;;;;0.00;0.00;;;;;;;12.80;74.74;97730.25;5002761;28;20030;-73
2022/02/17 00:21:29;;;;;;;0.00;0.00;;;;;;;12.84;74.46;97713.25;5002001;28;20164;-73
2022/02/17 00:23:55;;;;;;;0.10;0.00;;;;;;;12.86;74.55;97700.75;5000422;28;20034;-73
2022/02/17 00:26:20;;;;;;;0.00;0.00;;;;;;;12.91;74.13;97703.97;5004159;28;20034;-73
2022/02/17 00:28:46;;;;;;;0.10;0.00;;;;;;;12.98;74.03;97691.22;5002523;28;20081;-73
2022/02/17 00:31:11;;;;;;;0.20;0.10;;;;;;;13.00;73.54;97679.59;4984820;28;20084;-73
2022/02/17 00:33:39;;;;;;;1.02;0.05;;;;;;;13.04;73.99;97699.63;4984224;28;20042;-73
2022/02/17 00:36:07;;;;;;;0.00;0.00;;;;;;;13.14;73.34;97695.47;5000742;28;20061;-73
2022/02/17 00:38:33;;;;;;;0.45;0.10;;;;;;;13.27;73.19;97714.16;5007402;28;20508;-73
2022/02/17 00:40:58;;;;;;;1.13;0.08;;;;;;;13.38;72.52;97701.06;5003555;28;20038;-73
2022/02/17 00:43:24;;;;;;;0.00;0.00;;;;;;;13.45;72.89;97676.88;5001150;28;20038;-73
2022/02/17 00:45:49;;;;;;;1.90;0.00;;;;;;;13.54;71.92;97692.16;5003756;28;20041;-73
2022/02/17 00:48:18;;;;;;;0.00;0.00;;;;;;;13.55;71.80;97691.22;4989508;28;20042;-73
2022/02/17 00:50:45;;;;;;;0.00;0.00;;;;;;;13.57;71.96;97653.09;5001200;28;20026;-73
2022/02/17 00:53:11;;;;;;;0.00;0.00;;;;;;;13.62;71.62;97666.03;4964551;28;20061;-73
2022/02/17 00:55:36;;;;;;;0.25;0.00;;;;;;;13.61;71.43;97663.50;5002992;28;20038;-73
2022/02/17 00:58:04;;;;;;;0.57;0.10;;;;;;;13.73;71.11;97682.09;4976483;28;20036;-73
2022/02/17 01:00:30;;;;;;;0.03;0.00;;;;;;;13.68;71.53;97654.19;4982683;28;20030;-73
2022/02/17 01:03:04;;;;;;;0.63;0.10;;;;;;;13.69;71.50;97613.50;4965437;28;20035;-73
2022/02/17 01:05:30;;;;;;;0.10;0.00;;;;;;;13.70;71.71;97608.09;4984421;28;20468;-73
2022/02/17 01:07:58;;;;;;;0.20;0.00;;;;;;;13.73;71.73;97633.56;4964127;28;20082;-73
2022/02/17 01:10:23;;;;;;;0.20;0.00;;;;;;;13.76;72.11;97604.19;5003571;28;20038;-73
2022/02/17 01:12:49;;;;;;;0.20;0.10;;;;;;;13.75;71.45;97598.06;4985083;28;20033;-73
2022/02/17 01:15:16;;;;;;;0.20;0.00;;;;;;;13.84;71.03;97601.88;4984375;28;20120;-73
2022/02/17 01:17:41;;;;;;;0.28;0.05;;;;;;;13.86;71.19;97609.72;5002891;28;20104;-73
2022/02/17 01:20:08;;;;;;;0.10;0.00;;;;;;;13.87;71.77;97598.19;4982809;28;20053;-73
2022/02/17 01:22:33;;;;;;;0.30;0.10;;;;;;;13.79;73.67;97582.78;5001899;28;20041;-73
2022/02/17 01:24:59;;;;;;;1.42;0.17;;;;;;;13.56;74.48;97586.94;4969202;28;20049;-73
2022/02/17 01:27:25;;;;;;;0.00;0.00;;;;;;;13.50;74.44;97576.75;5001336;28;20041;-73
2022/02/17 01:29:52;;;;;;;0.00;0.00;;;;;;;13.59;73.09;97565.53;4963331;28;20066;-73
2022/02/17 01:32:19;;;;;;;0.00;0.00;;;;;;;13.72;72.28;97573.53;4968597;28;20036;-73
2022/02/17 01:34:45;;;;;;;0.77;0.10;;;;;;;13.87;71.76;97550.47;4984041;28;20120;-73
2022/02/17 01:37:10;;;;;;;0.95;0.38;;;;;;;13.89;71.46;97567.97;4984099;28;20477;-73
2022/02/17 01:39:36;;;;;;;0.10;0.00;;;;;;;13.92;71.37;97567.75;4980732;28;20034;-73
2022/02/17 01:42:09;;;;;;;0.30;0.00;;;;;;;14.01;71.25;97576.88;4964926;28;20449;-73
2022/02/17 01:44:35;;;;;;;0.10;0.00;;;;;;;14.00;70.89;97562.78;4983615;28;20037;-73
2022/02/17 01:47:10;;;;;;;0.40;0.10;;;;;;;14.04;70.72;97566.06;5002743;28;20038;-73
2022/02/17 01:49:38;;;;;;;0.17;0.00;;;;;;;14.08;70.85;97546.34;4982146;28;20044;-73
2022/02/17 01:52:06;;;;;;;1.13;0.00;;;;;;;14.09;70.35;97556.00;4963751;28;20624;-73
2022/02/17 01:54:32;;;;;;;0.00;0.00;;;;;;;14.17;69.95;97556.34;4981838;28;20391;-73
2022/02/17 01:57:00;;;;;;;1.25;0.00;;;;;;;14.17;70.00;97555.47;5002575;28;20159;-73
2022/02/17 01:59:27;;;;;;;0.00;0.00;;;;;;;14.15;70.13;97560.06;5001727;28;20560;-73
2022/02/17 02:01:54;;;;;;;0.00;0.00;;;;;;;14.23;69.72;97523.25;4981626;28;20037;-73
2022/02/17 02:04:20;;;;;;;0.60;0.10;;;;;;;14.25;69.80;97592.94;4982180;28;20046;-73
2022/02/17 02:06:56;;;;;;;3.33;0.00;;;;;;;14.39;69.98;97582.25;4983327;28;20037;-73
2022/02/17 02:09:21;;;;;;;1.10;0.10;;;;;;;14.34;70.18;97578.22;4963158;28;20034;-73
2022/02/17 02:11:59;;;;;;;0.00;0.00;;;;;;;14.30;70.05;97601.44;4982241;28;20040;-73
2022/02/17 02:14:25;;;;;;;0.00;0.00;;;;;;;14.27;70.57;97576.94;4967582;28;20038;-73
2022/02/17 02:16:54;;;;;;;0.52;0.00;;;;;;;14.21;69.96;97563.13;4978970;28;20117;-73
2022/02/17 02:19:21;;;;;;;1.08;0.10;;;;;;;14.42;69.37;97568.78;4984628;28;20042;-73
2022/02/17 02:21:50;;;;;;;0.22;0.10;;;;;;;14.46;68.85;97570.28;4982399;28;20022;-73
2022/02/17 02:24:16;;;;;;;0.32;0.10;;;;;;;14.43;67.86;97546.56;4962977;28;20039;-73
2022/02/17 02:26:41;;;;;;;1.23;0.10;;;;;;;14.58;67.00;97517.31;4984470;28;20113;-73
2022/02/17 02:29:07;;;;;;;7.10;1.00;;;;;;;14.15;69.81;97833.25;5002534;28;20046;-81
2022/02/17 02:31:32;;;;;;;14.88;1.88;;;;;;;9.75;98.04;97771.06;4986886;28;20026;-78
2022/02/17 02:33:58;;;;;;;13.82;2.08;;;;;;;8.92;96.94;97843.19;4966705;28;20422;-81
2022/02/17 02:36:23;;;;;;;10.15;1.73;;;;;;;8.82;98.05;97729.63;4975096;28;20042;-81
2022/02/17 02:38:49;;;;;;;9.38;1.33;;;;;;;8.82;98.19;97815.56;4986705;28;20038;-80
2022/02/17 02:41:18;;;;;;;6.05;1.75;;;;;;;8.85;98.15;97778.59;4984244;28;20113;-79
2022/02/17 02:43:49;;;;;;;8.88;1.88;;;;;;;8.86;98.54;97740.88;4985406;28;20461;-78
2022/02/17 02:46:17;;;;;;;6.80;1.85;;;;;;;8.88;98.67;97779.34;4979554;28;20034;-78
2022/02/17 02:48:44;;;;;;;5.53;0.80;;;;;;;8.97;97.57;97754.41;4975676;28;20022;-77
2022/02/17 02:51:12;;;;;;;4.55;1.10;;;;;;;9.20;96.22;97748.13;4977155;28;20022;-77
2022/02/17 02:53:37;;;;;;;4.65;0.70;;;;;;;9.37;94.44;97813.16;4991111;28;20065;-76
2022/02/17 02:56:03;;;;;;;6.93;1.15;;;;;;;9.51;94.21;97858.16;4969456;28;20041;-82
2022/02/17 02:58:29;;;;;;;6.07;1.33;;;;;;;9.21;94.05;97763.84;4994244;28;20038;-83
2022/02/17 03:00:54;;;;;;;5.03;0.95;;;;;;;9.04;91.89;97752.34;4984478;28;20101;-79
2022/02/17 03:03:20;;;;;;;5.28;0.70;;;;;;;9.13;92.10;97715.97;5003315;28;20062;-79
2022/02/17 03:05:45;;;;;;;3.35;0.82;;;;;;;9.24;92.02;97685.69;5000634;28;20077;-79
2022/02/17 03:08:14;;;;;;;7.50;0.90;;;;;;;9.28;93.52;97655.69;4969783;28;20030;-78
2022/02/17 03:10:39;;;;;;;5.22;1.40;;;;;;;9.30;93.25;97667.84;4984923;28;20112;-78
2022/02/17 03:13:09;;;;;;;6.70;1.20;;;;;;;9.38;91.44;97639.38;4981527;28;20062;-77
2022/02/17 03:15:34;;;;;;;5.15;1.20;;;;;;;9.51;90.79;97650.19;4986868;28;20053;-78
2022/02/17 03:18:01;;;;;;;4.35;1.05;;;;;;;9.75;86.04;97631.47;4972810;28;20117;-77
2022/02/17 03:20:27;;;;;;;4.95;0.90;;;;;;;10.00;84.47;97660.09;4985068;28;20172;-77
2022/02/17 03:22:52;;;;;;;3.42;0.80;;;;;;;10.13;80.85;97641.88;4987877;28;20181;-76
2022/02/17 03:25:18;;;;;;;5.10;0.98;;;;;;;10.42;75.51;97675.53;4971211;28;20042;-77
2022/02/17 03:27:43;;;;;;;2.75;0.52;;;;;;;10.40;77.51;97674.78;5003740;28;20125;-76
2022/02/17 03:30:35;;;;;;;3.53;0.55;;;;;;;10.26;76.19;97714.13;4971430;28;20101;-76
2022/02/17 03:33:11;;;;;;;3.38;0.68;;;;;;;10.26;74.68;97716.78;4983333;28;20513;-76
2022/02/17 03:35:37;;;;;;;2.55;0.65;;;;;;;10.06;75.90;97717.75;4985571;28;20537;-78
2022/02/17 03:38:03;;;;;;;1.60;0.50;;;;;;;9.87;75.62;97750.25;4984908;28;20045;-78
2022/02/17 03:40:32;;;;;;;4.43;0.70;;;;;;;9.62;77.67;97731.28;4968975;28;20030;-81
2022/02/17 03:42:59;;;;;;;7.80;0.95;;;;;;;9.28;79.57;97740.75;4989931;28;20062;-80
2022/02/17 03:45:24;;;;;;;4.55;0.77;;;;;;;9.13;81.60;97742.28;5007425;28;20084;-80
2022/02/17 03:48:00;;;;;;;6.38;0.90;;;;;;;8.98;81.33;97790.31;4969873;28;20030;-82
2022/02/17 03:50:27;;;;;;;3.00;0.50;;;;;;;8.75;82.58;97747.47;4989487;28;20413;-81
2022/02/17 03:53:03;;;;;;;4.80;0.75;;;;;;;8.48;81.88;97715.31;4986429;28;20057;-82
2022/02/17 03:55:31;;;;;;;5.40;0.93;;;;;;;8.37;83.74;97769.22;4989196;28;20033;-81
2022/02/17 03:57:57;;;;;;;4.75;0.60;;;;;;;8.26;84.34;97733.72;4990473;28;20034;-79
2022/02/17 04:00:25;;;;;;;3.92;0.90;;;;;;;8.22;85.04;97778.56;4986861;28;20036;-80
2022/02/17 04:02:53;;;;;;;6.70;0.70;;;;;;;8.14;84.76;97749.97;4989349;28;20088;-82
2022/02/17 04:05:21;;;;;;;6.07;0.88;;;;;;;8.00;86.90;97697.19;4989507;28;20065;-81
2022/02/17 04:07:49;;;;;;;6.47;1.17;;;;;;;7.97;88.01;97721.78;5003483;28;20034;-80
2022/02/17 04:10:21;;;;;;;5.13;1.02;;;;;;;8.08;86.94;97730.06;4989142;28;20083;-79
2022/02/17 04:12:46;;;;;;;8.25;1.13;;;;;;;8.10;86.48;97724.78;4973137;28;20038;-77
2022/02/17 04:15:12;;;;;;;6.63;1.08;;;;;;;8.12;85.96;97715.03;4984754;28;20105;-76
2022/02/17 04:17:38;;;;;;;4.43;0.80;;;;;;;8.13;84.94;97735.16;4977527;28;20085;-77
2022/02/17 04:20:20;;;;;;;4.53;0.70;;;;;;;8.40;81.83;97732.31;4984493;28;20802;-76
2022/02/17 04:22:58;;;;;;;6.63;0.60;;;;;;;8.72;79.15;97759.88;4968980;28;20049;-75
2022/02/17 04:25:34;;;;;;;3.60;0.50;;;;;;;8.94;78.48;97804.53;4980336;28;20084;-74
2022/02/17 04:28:01;;;;;;;5.85;0.55;;;;;;;9.06;75.84;97761.03;4986161;28;20030;-75
2022/02/17 04:30:27;;;;;;;6.50;1.23;;;;;;;9.26;76.60;97749.63;4971295;28;20034;-75
2022/02/17 04:32:54;;;;;;;3.95;0.70;;;;;;;9.37;76.18;97815.78;4987596;28;20030;-76
2022/02/17 04:35:45;;;;;;;6.15;1.20;;;;;;;9.16;80.31;97821.06;5002284;28;20052;-75
2022/02/17 04:38:11;;;;;;;3.45;0.82;;;;;;;8.86;81.08;97764.56;4969809;28;20030;-79
2022/02/17 04:43:32;;;;;;;7.32;0.90;;;;;;;8.69;77.02;97837.09;4985917;28;20072;-77
2022/02/17 04:45:58;;;;;;;4.60;0.75;;;;;;;8.62;78.60;97819.91;4983458;28;20046;-77
2022/02/17 04:48:23;;;;;;;4.65;0.60;;;;;;;8.59;75.81;97785.81;4988659;28;20045;-77
2022/02/17 04:50:49;;;;;;;3.47;0.90;;;;;;;8.50;77.55;97846.69;4982791;28;20117;-77
2022/02/17 04:53:14;;;;;;;4.38;0.80;;;;;;;8.45;76.46;97811.84;5002206;28;20045;-77
2022/02/17 04:55:48;;;;;;;3.63;0.63;;;;;;;8.47;77.09;97783.72;4978783;28;20030;-76
2022/02/17 04:58:14;;;;;;;5.15;1.13;;;;;;;8.46;76.23;97774.09;4988992;28;20109;-75
2022/02/17 05:00:40;;;;;;;3.33;1.00;;;;;;;8.41;76.77;97820.75;5001923;28;20034;-75
2022/02/17 05:03:29;;;;;;;3.17;0.73;;;;;;;8.63;75.65;97736.63;4969727;28;20038;-75
2022/02/17 05:06:10;;;;;;;4.93;0.95;;;;;;;8.83;72.84;97790.97;4982283;28;20177;-74
2022/02/17 05:08:42;;;;;;;3.97;0.90;;;;;;;9.02;71.24;97812.94;4984229;28;20120;-75
2022/02/17 05:11:07;;;;;;;4.90;1.10;;;;;;;9.10;71.41;97818.72;4969170;28;20320;-74
2022/02/17 05:13:33;;;;;;;3.65;0.63;;;;;;;9.15;71.14;97829.91;4980218;28;20034;-74
2022/02/17 05:15:59;;;;;;;5.95;0.80;;;;;;;9.18;71.41;97849.97;4988073;28;20025;-74
2022/02/17 05:18:25;;;;;;;4.70;0.77;;;;;;;9.16;71.32;97886.84;4983278;28;20406;-74
2022/02/17 05:20:50;;;;;;;5.57;1.00;;;;;;;9.29;70.86;97839.81;4964145;28;20035;-74
2022/02/17 05:23:25;;;;;;;3.42;0.77;;;;;;;9.22;70.94;97867.31;4981307;28;20418;-74
2022/02/17 05:26:19;;;;;;;4.95;0.80;;;;;;;9.16;72.46;97878.97;4988249;28;20081;-73
2022/02/17 05:28:56;;;;;;;4.82;0.68;;;;;;;8.95;74.27;97959.63;4996381;28;20089;-74
2022/02/17 05:31:30;;;;;;;3.10;0.70;;;;;;;8.87;75.61;97905.66;4971599;28;20106;-74
2022/02/17 05:34:05;;;;;;;4.65;0.95;;;;;;;8.54;77.34;97979.69;4959850;28;20038;-75
2022/02/17 05:36:44;;;;;;;6.13;1.00;;;;;;;8.19;79.38;97983.63;4973309;28;20030;-76
2022/02/17 05:39:21;;;;;;;5.00;0.90;;;;;;;8.00;82.52;97941.44;4989055;28;20081;-76
2022/02/17 05:41:53;;;;;;;2.78;0.60;;;;;;;7.88;82.98;97990.84;4969012;28;20034;-77
2022/02/17 05:44:19;;;;;;;4.68;0.85;;;;;;;7.73;86.07;97973.03;5003250;28;20096;-78
2022/02/17 05:46:45;;;;;;;4.93;0.95;;;;;;;7.59;87.67;98075.88;5004243;28;20034;-78
2022/02/17 05:49:10;;;;;;;3.33;0.50;;;;;;;7.44;85.92;97977.53;4983626;28;20034;-77
2022/02/17 05:51:36;;;;;;;3.53;0.80;;;;;;;7.36;86.66;97976.94;5002417;28;20029;-77
2022/02/17 05:54:02;;;;;;;5.43;0.75;;;;;;;7.33;87.99;98005.88;4968921;28;20034;-76
2022/02/17 05:56:27;;;;;;;4.13;1.05;;;;;;;7.37;87.94;97989.16;4998376;28;20172;-75
2022/02/17 05:58:53;;;;;;;3.53;0.63;;;;;;;7.45;86.63;97968.75;4994929;28;20082;-75
2022/02/17 06:01:18;;;;;;;6.65;0.93;;;;;;;7.66;85.58;97979.41;5002718;28;20034;-75
2022/02/17 06:03:43;;;;;;;5.68;0.70;;;;;;;7.77;83.75;98011.38;4999385;28;20037;-75
2022/02/17 06:06:09;;;;;;;3.45;0.70;;;;;;;7.86;81.97;97992.69;4998442;28;20417;-75
2022/02/17 06:08:34;;;;;;;4.07;1.10;;;;;;;7.87;82.93;97998.81;4996669;28;20454;-75
2022/02/17 06:10:59;;;;;;;8.27;0.73;;;;;;;7.90;82.42;98025.78;4998329;28;20635;-75
2022/02/17 06:13:25;;;;;;;5.15;1.30;;;;;;;7.96;80.68;98040.47;5001231;28;20026;-75
2022/02/17 06:15:50;;;;;;;2.78;0.63;;;;;;;8.04;79.67;98021.81;4982498;28;20061;-75
2022/02/17 06:18:15;;;;;;;5.97;1.10;;;;;;;8.02;79.04;98039.44;4999860;28;20109;-75
2022/02/17 06:20:42;;;;;;;6.65;1.23;;;;;;;8.10;77.73;98011.09;5000277;28;20069;-75
2022/02/17 06:23:07;;;;;;;4.50;1.00;;;;;;;8.15;77.52;98019.69;4996787;28;20061;-74
2022/02/17 06:25:33;;;;;;;7.53;1.05;;;;;;;8.30;75.59;98029.59;4995886;28;20052;-74
2022/02/17 06:27:58;;;;;;;6.47;0.88;;;;;;;8.28;76.05;98031.47;4999735;28;20048;-75
2022/02/17 06:30:24;;;;;;;4.15;1.20;;;;;;;8.28;73.73;98039.34;4996664;28;20040;-75
2022/02/17 06:32:53;;;;;;;8.50;1.90;;;;;;;8.48;72.85;98059.63;4999550;28;20026;-74
2022/02/17 06:35:24;;;;;;;6.90;0.82;;;;;;;8.50;71.62;98068.34;5003154;28;20627;-74
2022/02/17 06:37:51;;;;;;;4.90;0.90;;;;;;;8.55;71.49;98066.41;4984798;28;20038;-75
2022/02/17 06:40:20;;;;;;;6.13;1.00;;;;;;;8.56;69.22;98073.34;5002408;28;20034;-73
2022/02/17 06:42:46;;;;;;;8.45;1.27;;;;;;;8.72;68.68;98067.53;5000907;28;20455;-74
2022/02/17 06:45:14;;;;;;;4.90;1.00;;;;;;;8.82;68.76;98078.56;5000142;28;20062;-74
2022/02/17 06:47:40;;;;;;;4.43;0.77;;;;;;;8.97;67.51;98143.75;5005691;28;20038;-74
2022/02/17 06:50:07;;;;;;;4.55;0.80;;;;;;;8.90;69.07;98074.72;5003710;28;20044;-74
2022/02/17 06:52:33;;;;;;;5.35;0.82;;;;;;;9.03;67.70;98082.13;5004860;28;20121;-73
2022/02/17 06:54:59;;;;;;;5.90;1.08;;;;;;;8.97;68.22;98097.25;5005153;28;20132;-74
2022/02/17 06:57:25;;;;;;;3.42;0.73;;;;;;;9.07;65.88;98099.53;5002218;28;20547;-73
2022/02/17 06:59:52;;;;;;;3.15;0.70;;;;;;;9.07;64.83;98113.53;5005891;28;20125;-73
2022/02/17 07:02:25;;;;;;;5.85;1.13;;;;;;;9.26;61.93;98123.34;5001245;28;20493;-73
2022/02/17 07:04:50;;;;;;;5.22;1.02;;;;;;;9.27;62.36;98122.41;5005579;28;20074;-74
2022/02/17 07:07:16;;;;;;;6.60;0.85;;;;;;;9.21;59.88;98119.09;5003010;28;20120;-74
2022/02/17 07:09:41;;;;;;;6.53;1.10;;;;;;;9.22;59.83;98112.06;5005049;28;20125;-73
2022/02/17 07:12:07;;;;;;;5.50;1.17;;;;;;;9.19;60.93;98104.28;5004732;28;20464;-73
2022/02/17 07:14:32;;;;;;;4.07;1.17;;;;;;;9.17;61.08;98117.53;5003052;28;20038;-73
2022/02/17 07:16:59;;;;;;;4.82;0.88;;;;;;;9.15;61.53;98111.47;5005704;28;20053;-73
2022/02/17 07:19:25;;;;;;;4.75;1.00;;;;;;;9.17;62.16;98122.78;5003419;28;20052;-73
2022/02/17 07:21:51;;;;;;;7.72;0.80;;;;;;;9.09;61.74;98130.13;5003723;28;20048;-74
2022/02/17 07:24:21;;;;;;;8.13;1.27;;;;;;;8.99;61.68;98165.59;5000017;28;20129;-74
2022/02/17 07:26:46;;;;;;;4.82;0.80;;;;;;;8.97;61.84;98135.84;4998889;28;20080;-74
2022/02/17 07:29:14;;;;;;;5.47;1.10;;;;;;;8.99;62.57;98145.41;4987047;28;20034;-74
2022/02/17 07:31:40;;;;;;;7.60;0.85;;;;;;;8.94;62.36;98135.97;5004140;28;20041;-73
2022/02/17 07:34:06;;;;;;;5.28;1.00;;;;;;;8.91;62.78;98149.25;5001899;28;20030;-73
2022/02/17 07:36:32;;;;;;;4.07;0.90;;;;;;;8.94;62.75;98135.97;4998642;28;20387;-73
2022/02/17 07:38:57;;;;;;;7.20;1.02;;;;;;;8.95;62.20;98141.16;5004477;28;20129;-73
2022/02/17 07:41:22;;;;;;;6.63;1.60;;;;;;;8.90;61.11;98127.31;5003809;28;20077;-73
2022/02/17 07:43:48;;;;;;;5.53;0.82;;;;;;;8.98;59.05;98200.69;5002823;28;20038;-73
2022/02/17 07:46:15;;;;;;;4.43;0.80;;;;;;;9.05;60.00;98172.41;5004881;28;20061;-73
2022/02/17 07:48:41;;;;;;;3.38;0.60;;;;;;;9.05;60.57;98189.03;5002958;28;20085;-73
2022/02/17 07:51:07;;;;;;;4.82;0.80;;;;;;;9.10;59.71;98230.97;5003703;28;20037;-73
2022/02/17 07:53:33;;;;;;;4.90;0.73;;;;;;;9.06;58.79;98205.66;4997387;28;20405;-73
2022/02/17 07:55:59;;;;;;;5.20;1.00;;;;;;;9.04;59.08;98194.34;4977827;28;20030;-73
2022/02/17 07:58:25;;;;;;;7.38;0.90;;;;;;;8.97;59.66;98220.03;4973693;28;20073;-73
2022/02/17 08:00:51;;;;;;;5.97;1.20;;;;;;;8.97;58.97;98175.31;4995324;28;20038;-73
2022/02/17 08:03:16;;;;;;;4.50;1.08;;;;;;;8.99;58.79;98234.84;4994407;28;20034;-72
2022/02/17 08:05:42;;;;;;;4.97;1.00;;;;;;;9.04;58.35;98204.88;4993755;28;20529;-73
2022/02/17 08:08:09;;;;;;;3.88;1.08;;;;;;;9.07;58.48;98241.63;5004412;28;20034;-73
2022/02/17 08:10:35;;;;;;;6.53;1.40;;;;;;;8.96;58.67;98205.16;4994602;28;20037;-73
2022/02/17 08:13:01;;;;;;;3.97;1.10;;;;;;;8.96;58.20;98220.94;5001430;28;20528;-73
2022/02/17 08:15:27;;;;;;;4.40;1.02;;;;;;;9.01;57.29;98221.63;5001517;28;20070;-73
2022/02/17 08:17:52;;;;;;;5.63;0.90;;;;;;;9.00;56.04;98180.44;4997829;28;20557;-73
2022/02/17 08:20:18;;;;;;;2.85;0.73;;;;;;;8.99;55.37;98182.22;4998435;28;20134;-73
2022/02/17 08:22:51;;;;;;;4.20;0.95;;;;;;;9.13;55.30;98207.16;4999783;28;20041;-73
2022/02/17 08:25:17;;;;;;;3.88;0.73;;;;;;;9.27;54.69;98228.56;5002371;28;20041;-73
2022/02/17 08:27:42;;;;;;;3.90;1.30;;;;;;;9.20;54.06;98209.53;4999844;28;20555;-74
2022/02/17 08:30:09;;;;;;;4.63;0.88;;;;;;;9.29;54.92;98192.50;5001408;28;20038;-74
2022/02/17 08:32:35;;;;;;;3.80;0.57;;;;;;;9.22;55.16;98196.28;5004679;28;20203;-74
2022/02/17 08:35:01;;;;;;;3.00;0.55;;;;;;;9.19;56.58;98199.03;5001106;28;20034;-74
2022/02/17 08:37:26;;;;;;;8.95;0.88;;;;;;;9.14;56.83;98201.88;5003903;28;20042;-73
2022/02/17 08:39:52;;;;;;;3.22;0.55;;;;;;;9.15;56.40;98219.34;5002700;28;20113;-73
2022/02/17 08:42:17;;;;;;;3.22;0.95;;;;;;;9.10;56.49;98250.25;5002115;28;20030;-73
2022/02/17 08:44:43;;;;;;;4.03;0.82;;;;;;;9.11;56.73;98201.94;5001271;28;20042;-73
2022/02/17 08:47:08;;;;;;;3.25;0.57;;;;;;;9.10;56.05;98247.63;5000797;28;20037;-73
2022/02/17 08:49:33;;;;;;;6.43;1.13;;;;;;;9.14;56.70;98241.34;4999965;28;20030;-74
2022/02/17 08:51:59;;;;;;;5.07;1.05;;;;;;;9.16;57.54;98260.53;5000928;28;20121;-73
2022/02/17 08:54:24;;;;;;;6.43;1.08;;;;;;;9.17;57.97;98228.06;5003102;28;20113;-73
2022/02/17 08:56:49;;;;;;;5.05;1.00;;;;;;;9.16;57.73;98259.69;5000715;28;20070;-73
2022/02/17 08:59:15;;;;;;;5.45;1.17;;;;;;;9.21;57.56;98250.69;5003730;28;20122;-74
2022/02/17 09:01:40;;;;;;;6.25;1.23;;;;;;;9.18;57.88;98234.19;4999811;28;20084;-73
2022/02/17 09:04:06;;;;;;;6.45;1.55;;;;;;;9.15;57.85;98237.78;5001636;28;20176;-73
2022/02/17 09:06:32;;;;;;;4.00;0.80;;;;;;;9.22;57.88;98241.03;5002511;28;20038;-74
2022/02/17 09:08:57;;;;;;;7.43;1.40;;;;;;;9.24;58.40;98283.94;4998540;28;20038;-73
2022/02/17 09:11:24;;;;;;;7.32;1.40;;;;;;;9.25;57.65;98245.31;5000000;28;20088;-73
2022/02/17 09:13:50;;;;;;;6.07;1.40;;;;;;;9.30;58.19;98275.84;4997807;28;20026;-73
2022/02/17 09:16:15;;;;;;;6.75;1.38;;;;;;;9.34;58.22;98255.50;5002643;28;20095;-74
2022/02/17 09:18:40;;;;;;;8.10;1.70;;;;;;;9.25;58.09;98301.47;4999509;28;20048;-74
2022/02/17 09:21:06;;;;;;;5.80;1.45;;;;;;;9.16;57.52;98326.31;4999159;28;20478;-73
2022/02/17 09:23:33;;;;;;;4.82;1.13;;;;;;;9.01;56.70;98274.25;5002655;28;20046;-73
2022/02/17 09:25:58;;;;;;;7.07;1.45;;;;;;;8.99;55.51;98294.50;5000896;28;20486;-73
2022/02/17 09:28:24;;;;;;;5.88;1.50;;;;;;;8.96;55.68;98319.16;5000501;28;20107;-73
2022/02/17 09:30:50;;;;;;;5.88;1.08;;;;;;;9.17;55.75;98291.22;5003151;28;20092;-73
2022/02/17 09:33:15;;;;;;;4.43;0.90;;;;;;;9.23;56.99;98319.09;4999798;28;20084;-73
2022/02/17 09:35:41;;;;;;;9.13;2.10;;;;;;;9.27;56.96;98261.91;4998728;28;20509;-73
2022/02/17 09:38:06;;;;;;;8.95;1.75;;;;;;;9.38;56.58;98304.53;5003839;28;20045;-73
2022/02/17 09:40:32;;;;;;;7.85;1.70;;;;;;;9.52;55.51;98285.56;4999463;28;20038;-73
2022/02/17 09:42:57;;;;;;;6.80;1.42;;;;;;;9.64;54.73;98322.84;4999236;28;20073;-73
2022/02/17 09:45:25;;;;;;;8.25;1.40;;;;;;;9.76;56.57;98329.41;5001548;28;20044;-73
2022/02/17 09:47:51;;;;;;;5.25;1.45;;;;;;;9.81;55.77;98308.16;4997033;28;20065;-74
2022/02/17 09:50:16;;;;;;;5.20;1.40;;;;;;;9.95;55.63;98342.72;4985927;28;20049;-74
2022/02/17 09:52:43;;;;;;;9.80;1.60;;;;;;;10.04;55.37;98341.53;4996776;28;20113;-73
2022/02/17 09:55:13;;;;;;;8.48;1.75;;;;;;;10.19;54.72;98358.50;5000045;28;20052;-73
2022/02/17 09:57:40;;;;;;;5.38;1.50;;;;;;;10.31;55.40;98372.09;5000645;28;20053;-73
2022/02/17 10:00:08;;;;;;;4.50;1.25;;;;;;;10.46;54.34;98346.91;4988868;28;20552;-73
2022/02/17 10:02:41;;;;;;;9.27;2.00;;;;;;;10.46;54.47;98344.25;4996417;28;20037;-74
2022/02/17 10:05:07;;;;;;;8.38;1.65;;;;;;;10.51;53.36;98336.16;5002262;28;20041;-73
2022/02/17 10:07:40;;;;;;;5.50;1.15;;;;;;;10.68;53.31;98364.47;4967595;28;20549;-73
2022/02/17 10:10:11;;;;;;;6.05;2.03;;;;;;;10.61;52.94;98357.72;4997211;28;20061;-73
2022/02/17 10:12:53;;;;;;;5.38;1.05;;;;;;;10.64;51.59;98400.69;4991750;28;20040;-73
2022/02/17 10:15:32;;;;;;;6.35;1.30;;;;;;;10.66;51.44;98416.44;5002353;28;20045;-73
2022/02/17 10:18:13;;;;;;;6.18;1.35;;;;;;;10.70;50.48;98415.41;4999568;28;20141;-73
2022/02/17 10:21:06;;;;;;;6.22;1.48;;;;;;;10.81;51.98;98418.47;4995756;28;20034;-74
2022/02/17 10:23:46;;;;;;;5.72;1.23;;;;;;;10.70;50.40;98410.13;5003338;28;20046;-73
2022/02/17 10:26:13;;;;;;;5.38;1.15;;;;;;;10.69;50.59;98492.84;5001081;28;20050;-73
2022/02/17 10:28:40;;;;;;;6.70;1.17;;;;;;;10.81;49.30;98450.13;5005012;28;20054;-73
2022/02/17 10:31:08;;;;;;;7.95;1.35;;;;;;;10.94;52.19;98429.38;5006453;28;20061;-73
2022/02/17 10:33:41;;;;;;;6.70;1.60;;;;;;;10.79;50.03;98483.63;5000220;28;20105;-73
2022/02/17 10:36:07;;;;;;;9.13;1.30;;;;;;;10.78;51.29;98481.91;5004301;28;20034;-74
2022/02/17 10:38:32;;;;;;;5.47;1.20;;;;;;;10.59;51.93;98471.22;5006525;28;20046;-73
2022/02/17 10:40:58;;;;;;;6.32;1.30;;;;;;;10.58;52.36;98480.03;4993911;28;20034;-73
2022/02/17 10:43:28;;;;;;;4.72;1.45;;;;;;;10.49;52.16;98481.28;4995805;28;20042;-73
2022/02/17 10:45:54;;;;;;;8.85;1.75;;;;;;;10.32;53.40;98515.31;4999057;28;20034;-73
2022/02/17 10:48:22;;;;;;;7.13;1.27;;;;;;;10.31;53.21;98495.16;5007440;28;20666;-74
2022/02/17 10:51:01;;;;;;;10.02;1.42;;;;;;;10.34;53.89;98481.84;4986887;28;20057;-74
2022/02/17 10:53:26;;;;;;;6.45;1.40;;;;;;;10.50;53.44;98527.81;4985812;28;20495;-73
2022/02/17 10:55:57;;;;;;;6.55;1.50;;;;;;;10.55;52.60;98505.69;5005780;28;20057;-73
2022/02/17 10:58:30;;;;;;;7.07;1.17;;;;;;;10.56;53.41;98475.75;4999195;28;20034;-73
2022/02/17 11:01:00;;;;;;;5.32;1.35;;;;;;;10.53;53.18;98508.38;4998235;28;20041;-73
2022/02/17 11:03:27;;;;;;;4.05;1.27;;;;;;;10.63;53.45;98572.19;5003611;28;20034;-73
2022/02/17 11:05:54;;;;;;;6.00;1.55;;;;;;;10.63;54.08;98503.63;5002231;28;20088;-74
2022/02/17 11:08:20;;;;;;;7.32;1.40;;;;;;;10.66;54.48;98520.22;5003845;28;20120;-73
2022/02/17 11:10:46;;;;;;;6.75;1.55;;;;;;;10.49;54.87;98528.75;4999935;28;20489;-75
2022/02/17 11:13:17;;;;;;;5.72;1.40;;;;;;;10.41;55.78;98515.00;4995072;28;20042;-74
2022/02/17 11:15:44;;;;;;;6.88;1.30;;;;;;;10.47;54.00;98546.41;4995166;28;20042;-73
2022/02/17 11:18:11;;;;;;;6.75;1.77;;;;;;;10.41;55.28;98551.91;4999223;28;20096;-74
2022/02/17 11:20:38;;;;;;;4.70;1.25;;;;;;;10.32;54.71;98570.69;4996765;28;20042;-72
2022/02/17 11:23:04;;;;;;;4.95;1.20;;;;;;;10.25;56.04;98554.22;4992364;28;20487;-74
2022/02/17 11:25:38;;;;;;;7.80;1.67;;;;;;;10.08;59.28;98540.78;5000185;28;20440;-74
2022/02/17 11:28:11;;;;;;;6.43;1.20;;;;;;;9.83;57.25;98582.97;5001050;28;20049;-74
2022/02/17 11:30:39;;;;;;;6.38;1.38;;;;;;;10.02;55.34;98575.25;5002308;28;20124;-73
2022/02/17 11:33:24;;;;;;;6.18;1.13;;;;;;;10.28;55.88;98545.38;5003997;28;20029;-73
2022/02/17 11:36:08;;;;;;;5.90;1.15;;;;;;;10.50;54.80;98564.75;4998870;28;20066;-73
2022/02/17 11:38:34;;;;;;;6.55;1.30;;;;;;;10.60;52.43;98581.09;4977676;28;20043;-74
2022/02/17 11:41:14;;;;;;;8.02;1.55;;;;;;;10.79;51.99;98589.16;5003001;28;20040;-73
2022/02/17 11:43:46;;;;;;;7.18;1.50;;;;;;;10.88;52.71;98580.06;5002279;28;20046;-74
2022/02/17 11:46:16;;;;;;;8.85;1.92;;;;;;;10.92;51.74;98553.47;5003409;28;20038;-74